Terminal Aerodrome Forecast
Issued by NWS

Home | Current Version | Previous Version | Text Only | Print | Product List | Glossary On
Versions: 1 2 3 4 5 6 7 8 9 10 11 12 13 14 15 16 17 18 19 20
173
FTUS43 KUNR 150523
TAFGCC
TAF
KGCC 150523Z 1506/1606 27005KT P6SM BKN100
     FM151000 32010KT P6SM BKN025 OVC050
     FM151200 34015G25KT 1SM -SN BKN008 OVC010
     FM152000 25015KT P6SM BKN015=

USA.gov is the U.S. government's official web portal to all federal, state and local government web resources and services.